sensor_id;sensor_type;location;lat;lon;timestamp;temperature;humidity
79750;SHT31;69233;51.968;5.658;2023-05-07T00:00:38;19.1;63.9
79750;SHT31;69233;51.968;5.658;2023-05-07T00:03:08;19.1;64.6
79750;SHT31;69233;51.968;5.658;2023-05-07T00:05:38;19.1;63.9
79750;SHT31;69233;51.968;5.658;2023-05-07T00:08:08;19.1;63.9
79750;SHT31;69233;51.968;5.658;2023-05-07T00:10:38;19.0;64.1
79750;SHT31;69233;51.968;5.658;2023-05-07T00:13:07;19.0;64.0
79750;SHT31;69233;51.968;5.658;2023-05-07T00:15:37;19.0;63.8
79750;SHT31;69233;51.968;5.658;2023-05-07T00:18:07;19.0;63.7
79750;SHT31;69233;51.968;5.658;2023-05-07T00:20:36;19.0;63.8
79750;SHT31;69233;51.968;5.658;2023-05-07T00:23:06;18.9;64.0
79750;SHT31;69233;51.968;5.658;2023-05-07T00:25:35;18.9;64.2
79750;SHT31;69233;51.968;5.658;2023-05-07T00:28:05;18.9;64.0
79750;SHT31;69233;51.968;5.658;2023-05-07T00:30:34;18.8;63.8
79750;SHT31;69233;51.968;5.658;2023-05-07T00:33:04;18.8;64.3
79750;SHT31;69233;51.968;5.658;2023-05-07T00:35:34;18.8;64.2
79750;SHT31;69233;51.968;5.658;2023-05-07T00:38:03;18.8;64.4
79750;SHT31;69233;51.968;5.658;2023-05-07T00:40:33;18.7;64.2
79750;SHT31;69233;51.968;5.658;2023-05-07T00:43:02;18.7;64.4
79750;SHT31;69233;51.968;5.658;2023-05-07T00:45:32;18.7;64.3
79750;SHT31;69233;51.968;5.658;2023-05-07T00:48:04;18.6;64.1
79750;SHT31;69233;51.968;5.658;2023-05-07T00:50:36;18.6;64.6
79750;SHT31;69233;51.968;5.658;2023-05-07T00:53:06;18.6;64.7
79750;SHT31;69233;51.968;5.658;2023-05-07T00:55:36;18.6;65.0
79750;SHT31;69233;51.968;5.658;2023-05-07T00:58:06;18.5;65.2
79750;SHT31;69233;51.968;5.658;2023-05-07T01:00:35;18.5;65.4
79750;SHT31;69233;51.968;5.658;2023-05-07T01:03:05;18.5;65.3
79750;SHT31;69233;51.968;5.658;2023-05-07T01:05:38;18.5;65.3
79750;SHT31;69233;51.968;5.658;2023-05-07T01:08:08;18.5;65.2
79750;SHT31;69233;51.968;5.658;2023-05-07T01:10:38;18.5;65.2
79750;SHT31;69233;51.968;5.658;2023-05-07T01:13:12;18.5;65.3
79750;SHT31;69233;51.968;5.658;2023-05-07T01:15:42;18.4;65.6
79750;SHT31;69233;51.968;5.658;2023-05-07T01:18:13;18.4;65.6
79750;SHT31;69233;51.968;5.658;2023-05-07T01:20:43;18.4;65.6
79750;SHT31;69233;51.968;5.658;2023-05-07T01:23:14;18.4;65.5
79750;SHT31;69233;51.968;5.658;2023-05-07T01:25:54;18.4;65.7
79750;SHT31;69233;51.968;5.658;2023-05-07T01:28:24;18.4;65.7
79750;SHT31;69233;51.968;5.658;2023-05-07T01:30:58;18.4;66.2
79750;SHT31;69233;51.968;5.658;2023-05-07T01:33:33;18.4;65.4
79750;SHT31;69233;51.968;5.658;2023-05-07T01:36:04;18.4;66.3
79750;SHT31;69233;51.968;5.658;2023-05-07T01:38:37;18.4;65.8
79750;SHT31;69233;51.968;5.658;2023-05-07T01:41:07;18.4;66.0
79750;SHT31;69233;51.968;5.658;2023-05-07T01:43:37;18.4;65.6
79750;SHT31;69233;51.968;5.658;2023-05-07T01:46:06;18.4;65.9
79750;SHT31;69233;51.968;5.658;2023-05-07T01:48:37;18.4;66.4
79750;SHT31;69233;51.968;5.658;2023-05-07T01:51:08;18.4;65.8
79750;SHT31;69233;51.968;5.658;2023-05-07T01:53:38;18.4;65.9
79750;SHT31;69233;51.968;5.658;2023-05-07T01:56:11;18.4;65.7
79750;SHT31;69233;51.968;5.658;2023-05-07T01:58:40;18.4;65.6
79750;SHT31;69233;51.968;5.658;2023-05-07T02:01:10;18.4;65.7
79750;SHT31;69233;51.968;5.658;2023-05-07T02:03:39;18.4;65.6
79750;SHT31;69233;51.968;5.658;2023-05-07T02:06:09;18.4;65.8
79750;SHT31;69233;51.968;5.658;2023-05-07T02:08:39;18.4;65.8
79750;SHT31;69233;51.968;5.658;2023-05-07T02:11:08;18.4;66.1
79750;SHT31;69233;51.968;5.658;2023-05-07T02:13:41;18.4;65.9
79750;SHT31;69233;51.968;5.658;2023-05-07T02:16:12;18.5;65.8
79750;SHT31;69233;51.968;5.658;2023-05-07T02:18:42;18.5;65.5
79750;SHT31;69233;51.968;5.658;2023-05-07T02:21:14;18.5;65.9
79750;SHT31;69233;51.968;5.658;2023-05-07T02:23:43;18.5;65.5
79750;SHT31;69233;51.968;5.658;2023-05-07T02:26:13;18.5;65.5
79750;SHT31;69233;51.968;5.658;2023-05-07T02:28:42;18.5;65.4
79750;SHT31;69233;51.968;5.658;2023-05-07T02:31:12;18.5;65.1
79750;SHT31;69233;51.968;5.658;2023-05-07T02:33:42;18.4;65.3
79750;SHT31;69233;51.968;5.658;2023-05-07T02:36:12;18.4;65.5
79750;SHT31;69233;51.968;5.658;2023-05-07T02:38:44;18.4;65.2
79750;SHT31;69233;51.968;5.658;2023-05-07T02:41:14;18.4;65.1
79750;SHT31;69233;51.968;5.658;2023-05-07T02:43:44;18.4;65.5
79750;SHT31;69233;51.968;5.658;2023-05-07T02:46:13;18.4;65.4
79750;SHT31;69233;51.968;5.658;2023-05-07T02:48:45;18.4;65.2
79750;SHT31;69233;51.968;5.658;2023-05-07T02:51:14;18.4;65.2
79750;SHT31;69233;51.968;5.658;2023-05-07T02:53:44;18.4;64.9
79750;SHT31;69233;51.968;5.658;2023-05-07T02:56:13;18.4;65.0
79750;SHT31;69233;51.968;5.658;2023-05-07T02:58:45;18.4;65.0
79750;SHT31;69233;51.968;5.658;2023-05-07T03:01:16;18.4;65.0
79750;SHT31;69233;51.968;5.658;2023-05-07T03:03:46;18.4;64.8
79750;SHT31;69233;51.968;5.658;2023-05-07T03:06:15;18.4;64.7
79750;SHT31;69233;51.968;5.658;2023-05-07T03:08:45;18.4;65.3
79750;SHT31;69233;51.968;5.658;2023-05-07T03:11:15;18.4;65.1
79750;SHT31;69233;51.968;5.658;2023-05-07T03:13:45;18.4;65.3
79750;SHT31;69233;51.968;5.658;2023-05-07T03:16:16;18.4;65.2
79750;SHT31;69233;51.968;5.658;2023-05-07T03:18:45;18.4;65.2
79750;SHT31;69233;51.968;5.658;2023-05-07T03:21:15;18.4;65.0
79750;SHT31;69233;51.968;5.658;2023-05-07T03:23:45;18.4;64.8
79750;SHT31;69233;51.968;5.658;2023-05-07T03:26:16;18.4;64.9
79750;SHT31;69233;51.968;5.658;2023-05-07T03:28:46;18.4;64.7
79750;SHT31;69233;51.968;5.658;2023-05-07T03:31:17;18.4;64.5
79750;SHT31;69233;51.968;5.658;2023-05-07T03:33:55;18.4;64.2
79750;SHT31;69233;51.968;5.658;2023-05-07T03:36:27;18.3;64.4
79750;SHT31;69233;51.968;5.658;2023-05-07T03:38:56;18.3;64.1
79750;SHT31;69233;51.968;5.658;2023-05-07T03:41:26;18.3;63.9
79750;SHT31;69233;51.968;5.658;2023-05-07T03:43:57;18.3;64.2
79750;SHT31;69233;51.968;5.658;2023-05-07T03:46:26;18.3;64.4
79750;SHT31;69233;51.968;5.658;2023-05-07T03:48:58;18.3;64.3
79750;SHT31;69233;51.968;5.658;2023-05-07T03:51:28;18.3;64.8
79750;SHT31;69233;51.968;5.658;2023-05-07T03:53:58;18.2;64.5
79750;SHT31;69233;51.968;5.658;2023-05-07T03:56:27;18.2;64.8
79750;SHT31;69233;51.968;5.658;2023-05-07T03:58:58;18.2;64.9
79750;SHT31;69233;51.968;5.658;2023-05-07T04:01:27;18.2;65.1
79750;SHT31;69233;51.968;5.658;2023-05-07T04:03:57;18.1;65.2
79750;SHT31;69233;51.968;5.658;2023-05-07T04:06:26;18.1;65.3
79750;SHT31;69233;51.968;5.658;2023-05-07T04:08:56;18.1;66.1
79750;SHT31;69233;51.968;5.658;2023-05-07T04:11:27;18.1;65.7
79750;SHT31;69233;51.968;5.658;2023-05-07T04:13:56;18.1;65.8
79750;SHT31;69233;51.968;5.658;2023-05-07T04:16:26;18.1;66.0
79750;SHT31;69233;51.968;5.658;2023-05-07T04:18:57;18.1;66.0
79750;SHT31;69233;51.968;5.658;2023-05-07T04:21:27;18.1;66.0
79750;SHT31;69233;51.968;5.658;2023-05-07T04:23:59;18.1;65.9
79750;SHT31;69233;51.968;5.658;2023-05-07T04:26:28;18.1;65.8
79750;SHT31;69233;51.968;5.658;2023-05-07T04:28:58;18.1;66.1
79750;SHT31;69233;51.968;5.658;2023-05-07T04:31:28;18.1;65.8
79750;SHT31;69233;51.968;5.658;2023-05-07T04:33:59;18.1;66.0
79750;SHT31;69233;51.968;5.658;2023-05-07T04:36:29;18.0;66.3
79750;SHT31;69233;51.968;5.658;2023-05-07T04:39:00;18.1;66.5
79750;SHT31;69233;51.968;5.658;2023-05-07T04:41:31;18.1;66.7
79750;SHT31;69233;51.968;5.658;2023-05-07T04:44:01;18.1;66.8
79750;SHT31;69233;51.968;5.658;2023-05-07T04:46:32;18.1;67.2
79750;SHT31;69233;51.968;5.658;2023-05-07T04:49:03;18.1;66.9
79750;SHT31;69233;51.968;5.658;2023-05-07T04:51:33;18.1;67.2
79750;SHT31;69233;51.968;5.658;2023-05-07T04:54:02;18.1;67.0
79750;SHT31;69233;51.968;5.658;2023-05-07T04:56:32;18.1;66.9
79750;SHT31;69233;51.968;5.658;2023-05-07T04:59:01;18.2;66.7
79750;SHT31;69233;51.968;5.658;2023-05-07T05:01:31;18.2;66.8
79750;SHT31;69233;51.968;5.658;2023-05-07T05:04:00;18.2;66.9
79750;SHT31;69233;51.968;5.658;2023-05-07T05:06:30;18.2;66.7
79750;SHT31;69233;51.968;5.658;2023-05-07T05:08:59;18.2;66.6
79750;SHT31;69233;51.968;5.658;2023-05-07T05:11:31;18.2;66.8
79750;SHT31;69233;51.968;5.658;2023-05-07T05:14:01;18.2;66.4
79750;SHT31;69233;51.968;5.658;2023-05-07T05:16:32;18.2;66.6
79750;SHT31;69233;51.968;5.658;2023-05-07T05:19:02;18.2;66.2
79750;SHT31;69233;51.968;5.658;2023-05-07T05:21:32;18.2;66.4
79750;SHT31;69233;51.968;5.658;2023-05-07T05:24:02;18.2;66.7
79750;SHT31;69233;51.968;5.658;2023-05-07T05:26:32;18.2;66.6
79750;SHT31;69233;51.968;5.658;2023-05-07T05:29:01;18.2;66.6
79750;SHT31;69233;51.968;5.658;2023-05-07T05:31:33;18.2;66.7
79750;SHT31;69233;51.968;5.658;2023-05-07T05:34:04;18.2;66.8
79750;SHT31;69233;51.968;5.658;2023-05-07T05:36:33;18.2;67.1
79750;SHT31;69233;51.968;5.658;2023-05-07T05:39:03;18.2;67.1
79750;SHT31;69233;51.968;5.658;2023-05-07T05:41:35;18.2;67.2
79750;SHT31;69233;51.968;5.658;2023-05-07T05:44:04;18.2;67.1
79750;SHT31;69233;51.968;5.658;2023-05-07T05:46:34;18.2;67.1
79750;SHT31;69233;51.968;5.658;2023-05-07T05:49:04;18.2;67.1
79750;SHT31;69233;51.968;5.658;2023-05-07T05:51:34;18.2;67.5
79750;SHT31;69233;51.968;5.658;2023-05-07T05:54:04;18.3;67.5
79750;SHT31;69233;51.968;5.658;2023-05-07T05:56:34;18.3;67.2
79750;SHT31;69233;51.968;5.658;2023-05-07T05:59:03;18.3;67.2
79750;SHT31;69233;51.968;5.658;2023-05-07T06:01:33;18.3;67.4
79750;SHT31;69233;51.968;5.658;2023-05-07T06:04:03;18.3;67.2
79750;SHT31;69233;51.968;5.658;2023-05-07T06:06:32;18.4;67.2
79750;SHT31;69233;51.968;5.658;2023-05-07T06:09:02;18.4;67.7
79750;SHT31;69233;51.968;5.658;2023-05-07T06:11:33;18.4;67.3
79750;SHT31;69233;51.968;5.658;2023-05-07T06:14:02;18.4;67.1
79750;SHT31;69233;51.968;5.658;2023-05-07T06:16:32;18.4;67.0
79750;SHT31;69233;51.968;5.658;2023-05-07T06:19:01;18.4;67.1
79750;SHT31;69233;51.968;5.658;2023-05-07T06:21:31;18.4;67.0
79750;SHT31;69233;51.968;5.658;2023-05-07T06:24:00;18.5;67.2
79750;SHT31;69233;51.968;5.658;2023-05-07T06:26:30;18.5;67.9
79750;SHT31;69233;51.968;5.658;2023-05-07T06:28:59;18.5;67.7
79750;SHT31;69233;51.968;5.658;2023-05-07T06:31:30;18.5;67.6
79750;SHT31;69233;51.968;5.658;2023-05-07T06:34:01;18.5;67.4
79750;SHT31;69233;51.968;5.658;2023-05-07T06:36:30;18.5;67.8
79750;SHT31;69233;51.968;5.658;2023-05-07T06:39:00;18.6;67.5
79750;SHT31;69233;51.968;5.658;2023-05-07T06:41:29;18.6;67.3
79750;SHT31;69233;51.968;5.658;2023-05-07T06:43:59;18.6;67.5
79750;SHT31;69233;51.968;5.658;2023-05-07T06:46:29;18.6;67.9
79750;SHT31;69233;51.968;5.658;2023-05-07T06:48:58;18.7;67.0
79750;SHT31;69233;51.968;5.658;2023-05-07T06:51:28;18.7;67.4
79750;SHT31;69233;51.968;5.658;2023-05-07T06:53:58;18.8;67.3
79750;SHT31;69233;51.968;5.658;2023-05-07T06:56:27;18.8;66.3
79750;SHT31;69233;51.968;5.658;2023-05-07T06:58:57;18.8;67.0
79750;SHT31;69233;51.968;5.658;2023-05-07T07:01:27;18.9;67.1
79750;SHT31;69233;51.968;5.658;2023-05-07T07:03:57;18.9;67.5
79750;SHT31;69233;51.968;5.658;2023-05-07T07:06:27;18.9;67.6
79750;SHT31;69233;51.968;5.658;2023-05-07T07:08:59;19.0;67.1
79750;SHT31;69233;51.968;5.658;2023-05-07T07:11:29;19.0;67.6
79750;SHT31;69233;51.968;5.658;2023-05-07T07:13:58;19.1;66.5
79750;SHT31;69233;51.968;5.658;2023-05-07T07:16:30;19.1;66.8
79750;SHT31;69233;51.968;5.658;2023-05-07T07:18:59;19.2;67.1
79750;SHT31;69233;51.968;5.658;2023-05-07T07:21:29;19.2;67.3
79750;SHT31;69233;51.968;5.658;2023-05-07T07:23:59;19.2;66.3
79750;SHT31;69233;51.968;5.658;2023-05-07T07:26:28;19.3;66.8
79750;SHT31;69233;51.968;5.658;2023-05-07T07:28:58;19.3;67.6
79750;SHT31;69233;51.968;5.658;2023-05-07T07:31:28;19.3;66.5
79750;SHT31;69233;51.968;5.658;2023-05-07T07:33:58;19.3;66.4
79750;SHT31;69233;51.968;5.658;2023-05-07T07:36:28;19.3;66.5
79750;SHT31;69233;51.968;5.658;2023-05-07T07:38:57;19.4;66.2
79750;SHT31;69233;51.968;5.658;2023-05-07T07:41:27;19.4;65.9
79750;SHT31;69233;51.968;5.658;2023-05-07T07:43:57;19.4;66.0
79750;SHT31;69233;51.968;5.658;2023-05-07T07:46:26;19.4;66.6
79750;SHT31;69233;51.968;5.658;2023-05-07T07:48:56;19.4;66.8
79750;SHT31;69233;51.968;5.658;2023-05-07T07:51:27;19.4;67.0
79750;SHT31;69233;51.968;5.658;2023-05-07T07:53:57;19.4;67.6
79750;SHT31;69233;51.968;5.658;2023-05-07T07:56:28;19.4;67.0
79750;SHT31;69233;51.968;5.658;2023-05-07T07:58:57;19.5;67.3
79750;SHT31;69233;51.968;5.658;2023-05-07T08:01:28;19.5;67.8
79750;SHT31;69233;51.968;5.658;2023-05-07T08:03:58;19.5;65.8
79750;SHT31;69233;51.968;5.658;2023-05-07T08:06:30;19.6;65.6
79750;SHT31;69233;51.968;5.658;2023-05-07T08:08:59;19.6;65.4
79750;SHT31;69233;51.968;5.658;2023-05-07T08:11:29;19.6;66.4
79750;SHT31;69233;51.968;5.658;2023-05-07T08:13:59;19.7;65.2
79750;SHT31;69233;51.968;5.658;2023-05-07T08:16:29;19.7;65.7
79750;SHT31;69233;51.968;5.658;2023-05-07T08:18:58;19.7;66.0
79750;SHT31;69233;51.968;5.658;2023-05-07T08:21:28;19.8;65.8
79750;SHT31;69233;51.968;5.658;2023-05-07T08:23:58;19.8;65.2
79750;SHT31;69233;51.968;5.658;2023-05-07T08:26:27;19.8;65.6
79750;SHT31;69233;51.968;5.658;2023-05-07T08:28:57;19.9;65.9
79750;SHT31;69233;51.968;5.658;2023-05-07T08:31:26;19.9;66.4
79750;SHT31;69233;51.968;5.658;2023-05-07T08:33:56;20.0;66.6
79750;SHT31;69233;51.968;5.658;2023-05-07T08:36:26;20.0;66.1
79750;SHT31;69233;51.968;5.658;2023-05-07T08:38:55;20.1;66.5
79750;SHT31;69233;51.968;5.658;2023-05-07T08:41:25;20.2;65.6
79750;SHT31;69233;51.968;5.658;2023-05-07T08:43:58;20.3;67.1
79750;SHT31;69233;51.968;5.658;2023-05-07T08:46:31;20.4;66.2
79750;SHT31;69233;51.968;5.658;2023-05-07T08:49:01;20.5;66.2
79750;SHT31;69233;51.968;5.658;2023-05-07T08:51:33;20.6;65.8
79750;SHT31;69233;51.968;5.658;2023-05-07T08:54:03;20.8;65.5
79750;SHT31;69233;51.968;5.658;2023-05-07T08:56:34;20.9;65.0
79750;SHT31;69233;51.968;5.658;2023-05-07T08:59:04;21.0;64.3
79750;SHT31;69233;51.968;5.658;2023-05-07T09:01:33;21.2;61.5
79750;SHT31;69233;51.968;5.658;2023-05-07T09:04:06;21.3;61.0
79750;SHT31;69233;51.968;5.658;2023-05-07T09:06:36;21.4;62.1
79750;SHT31;69233;51.968;5.658;2023-05-07T09:09:09;21.5;63.1
79750;SHT31;69233;51.968;5.658;2023-05-07T09:11:39;21.6;61.5
79750;SHT31;69233;51.968;5.658;2023-05-07T09:14:08;21.8;61.8
79750;SHT31;69233;51.968;5.658;2023-05-07T09:16:38;21.9;60.2
79750;SHT31;69233;51.968;5.658;2023-05-07T09:19:10;22.0;61.9
79750;SHT31;69233;51.968;5.658;2023-05-07T09:21:39;22.2;59.4
79750;SHT31;69233;51.968;5.658;2023-05-07T09:24:09;22.3;60.5
79750;SHT31;69233;51.968;5.658;2023-05-07T09:26:41;22.5;59.7
79750;SHT31;69233;51.968;5.658;2023-05-07T09:29:11;22.6;58.0
79750;SHT31;69233;51.968;5.658;2023-05-07T09:31:42;22.7;58.7
79750;SHT31;69233;51.968;5.658;2023-05-07T09:34:12;22.8;57.5
79750;SHT31;69233;51.968;5.658;2023-05-07T09:36:41;22.9;58.7
79750;SHT31;69233;51.968;5.658;2023-05-07T09:39:11;23.0;57.4
79750;SHT31;69233;51.968;5.658;2023-05-07T09:41:46;23.0;58.5
79750;SHT31;69233;51.968;5.658;2023-05-07T09:44:17;23.1;57.8
79750;SHT31;69233;51.968;5.658;2023-05-07T09:46:53;23.2;56.1
79750;SHT31;69233;51.968;5.658;2023-05-07T09:49:27;23.3;54.1
79750;SHT31;69233;51.968;5.658;2023-05-07T09:52:00;23.3;53.8
79750;SHT31;69233;51.968;5.658;2023-05-07T09:54:31;23.4;53.1
79750;SHT31;69233;51.968;5.658;2023-05-07T09:57:01;23.4;52.7
79750;SHT31;69233;51.968;5.658;2023-05-07T09:59:32;23.4;53.5
79750;SHT31;69233;51.968;5.658;2023-05-07T10:02:03;23.4;53.7
79750;SHT31;69233;51.968;5.658;2023-05-07T10:04:33;23.4;54.5
79750;SHT31;69233;51.968;5.658;2023-05-07T10:07:04;23.4;53.5
79750;SHT31;69233;51.968;5.658;2023-05-07T10:09:35;23.4;53.1
79750;SHT31;69233;51.968;5.658;2023-05-07T10:12:07;23.4;53.3
79750;SHT31;69233;51.968;5.658;2023-05-07T10:14:39;23.4;53.2
79750;SHT31;69233;51.968;5.658;2023-05-07T10:17:09;23.4;52.6
79750;SHT31;69233;51.968;5.658;2023-05-07T10:19:44;23.4;52.8
79750;SHT31;69233;51.968;5.658;2023-05-07T10:22:16;23.4;53.7
79750;SHT31;69233;51.968;5.658;2023-05-07T10:24:49;23.4;53.7
79750;SHT31;69233;51.968;5.658;2023-05-07T10:27:23;23.4;54.7
79750;SHT31;69233;51.968;5.658;2023-05-07T10:30:01;23.4;53.3
79750;SHT31;69233;51.968;5.658;2023-05-07T10:32:42;23.4;54.4
79750;SHT31;69233;51.968;5.658;2023-05-07T10:35:19;23.4;55.4
79750;SHT31;69233;51.968;5.658;2023-05-07T10:37:50;23.5;55.4
79750;SHT31;69233;51.968;5.658;2023-05-07T10:40:21;23.5;55.9
79750;SHT31;69233;51.968;5.658;2023-05-07T10:42:59;23.5;55.5
79750;SHT31;69233;51.968;5.658;2023-05-07T10:45:30;23.6;55.3
79750;SHT31;69233;51.968;5.658;2023-05-07T10:48:11;23.7;56.1
79750;SHT31;69233;51.968;5.658;2023-05-07T10:50:42;23.8;55.3
79750;SHT31;69233;51.968;5.658;2023-05-07T10:53:22;23.9;54.7
79750;SHT31;69233;51.968;5.658;2023-05-07T10:56:26;24.0;54.0
79750;SHT31;69233;51.968;5.658;2023-05-07T10:58:56;24.2;52.9
79750;SHT31;69233;51.968;5.658;2023-05-07T11:02:03;24.3;53.7
79750;SHT31;69233;51.968;5.658;2023-05-07T11:04:34;24.4;53.7
79750;SHT31;69233;51.968;5.658;2023-05-07T11:08:57;24.5;53.3
79750;SHT31;69233;51.968;5.658;2023-05-07T11:11:48;24.6;51.2
79750;SHT31;69233;51.968;5.658;2023-05-07T11:14:46;24.7;51.0
79750;SHT31;69233;51.968;5.658;2023-05-07T11:17:17;24.7;50.3
79750;SHT31;69233;51.968;5.658;2023-05-07T11:19:50;24.7;51.6
79750;SHT31;69233;51.968;5.658;2023-05-07T11:22:41;24.8;52.7
79750;SHT31;69233;51.968;5.658;2023-05-07T11:25:18;24.9;52.2
79750;SHT31;69233;51.968;5.658;2023-05-07T11:27:50;25.0;52.6
79750;SHT31;69233;51.968;5.658;2023-05-07T11:30:22;25.0;50.9
79750;SHT31;69233;51.968;5.658;2023-05-07T11:32:52;25.1;50.3
79750;SHT31;69233;51.968;5.658;2023-05-07T11:35:23;25.2;50.8
79750;SHT31;69233;51.968;5.658;2023-05-07T11:37:59;25.2;50.8
79750;SHT31;69233;51.968;5.658;2023-05-07T11:40:29;25.3;49.7
79750;SHT31;69233;51.968;5.658;2023-05-07T11:43:11;25.3;49.3
79750;SHT31;69233;51.968;5.658;2023-05-07T11:45:43;25.3;49.9
79750;SHT31;69233;51.968;5.658;2023-05-07T11:48:15;25.3;49.4
79750;SHT31;69233;51.968;5.658;2023-05-07T11:51:04;25.3;50.5
79750;SHT31;69233;51.968;5.658;2023-05-07T11:53:38;25.3;49.8
79750;SHT31;69233;51.968;5.658;2023-05-07T11:56:10;25.3;49.8
79750;SHT31;69233;51.968;5.658;2023-05-07T11:58:41;25.3;49.5
79750;SHT31;69233;51.968;5.658;2023-05-07T12:01:12;25.3;50.1
79750;SHT31;69233;51.968;5.658;2023-05-07T12:03:44;25.3;51.0
79750;SHT31;69233;51.968;5.658;2023-05-07T12:06:16;25.3;51.4
79750;SHT31;69233;51.968;5.658;2023-05-07T12:08:46;25.3;51.5
79750;SHT31;69233;51.968;5.658;2023-05-07T12:11:24;25.3;50.6
79750;SHT31;69233;51.968;5.658;2023-05-07T12:13:54;25.3;50.8
79750;SHT31;69233;51.968;5.658;2023-05-07T12:16:24;25.4;51.3
79750;SHT31;69233;51.968;5.658;2023-05-07T12:18:56;25.5;51.1
79750;SHT31;69233;51.968;5.658;2023-05-07T12:21:26;25.5;49.2
79750;SHT31;69233;51.968;5.658;2023-05-07T12:23:56;25.6;51.2
79750;SHT31;69233;51.968;5.658;2023-05-07T12:26:26;25.8;51.1
79750;SHT31;69233;51.968;5.658;2023-05-07T12:28:59;26.0;50.8
79750;SHT31;69233;51.968;5.658;2023-05-07T12:31:28;26.2;50.9
79750;SHT31;69233;51.968;5.658;2023-05-07T12:33:58;26.4;47.4
79750;SHT31;69233;51.968;5.658;2023-05-07T12:36:38;26.7;48.7
79750;SHT31;69233;51.968;5.658;2023-05-07T12:39:09;27.1;49.3
79750;SHT31;69233;51.968;5.658;2023-05-07T12:41:54;27.6;47.2
79750;SHT31;69233;51.968;5.658;2023-05-07T12:44:30;28.1;46.0
79750;SHT31;69233;51.968;5.658;2023-05-07T12:47:01;28.5;44.8
79750;SHT31;69233;51.968;5.658;2023-05-07T12:49:31;28.8;42.5
79750;SHT31;69233;51.968;5.658;2023-05-07T12:52:02;29.0;43.1
79750;SHT31;69233;51.968;5.658;2023-05-07T12:54:34;29.2;41.8
79750;SHT31;69233;51.968;5.658;2023-05-07T12:57:06;29.3;42.2
79750;SHT31;69233;51.968;5.658;2023-05-07T12:59:38;29.4;40.9
79750;SHT31;69233;51.968;5.658;2023-05-07T13:02:08;29.5;40.0
79750;SHT31;69233;51.968;5.658;2023-05-07T13:04:38;29.5;39.1
79750;SHT31;69233;51.968;5.658;2023-05-07T13:07:08;29.5;38.8
79750;SHT31;69233;51.968;5.658;2023-05-07T13:09:37;29.3;38.3
79750;SHT31;69233;51.968;5.658;2023-05-07T13:12:07;29.0;39.6
79750;SHT31;69233;51.968;5.658;2023-05-07T13:14:38;28.7;39.5
79750;SHT31;69233;51.968;5.658;2023-05-07T13:17:08;28.4;40.5
79750;SHT31;69233;51.968;5.658;2023-05-07T13:19:37;28.2;42.1
79750;SHT31;69233;51.968;5.658;2023-05-07T13:22:07;28.0;41.9
79750;SHT31;69233;51.968;5.658;2023-05-07T13:24:37;27.9;41.6
79750;SHT31;69233;51.968;5.658;2023-05-07T13:27:09;27.8;43.0
79750;SHT31;69233;51.968;5.658;2023-05-07T13:29:38;27.7;42.0
79750;SHT31;69233;51.968;5.658;2023-05-07T13:32:08;27.7;42.7
79750;SHT31;69233;51.968;5.658;2023-05-07T13:34:37;27.6;43.6
79750;SHT31;69233;51.968;5.658;2023-05-07T13:37:07;27.6;43.3
79750;SHT31;69233;51.968;5.658;2023-05-07T13:39:37;27.6;44.3
79750;SHT31;69233;51.968;5.658;2023-05-07T13:42:08;27.6;43.7
79750;SHT31;69233;51.968;5.658;2023-05-07T13:44:37;27.8;44.3
79750;SHT31;69233;51.968;5.658;2023-05-07T13:47:07;28.1;42.6
79750;SHT31;69233;51.968;5.658;2023-05-07T13:49:37;28.4;42.6
79750;SHT31;69233;51.968;5.658;2023-05-07T13:52:06;28.6;42.1
79750;SHT31;69233;51.968;5.658;2023-05-07T13:54:36;28.7;40.8
79750;SHT31;69233;51.968;5.658;2023-05-07T13:57:06;28.8;40.9
79750;SHT31;69233;51.968;5.658;2023-05-07T13:59:35;28.8;40.9
79750;SHT31;69233;51.968;5.658;2023-05-07T14:02:05;28.8;41.3
79750;SHT31;69233;51.968;5.658;2023-05-07T14:04:37;28.8;40.6
79750;SHT31;69233;51.968;5.658;2023-05-07T14:07:07;28.7;41.4
79750;SHT31;69233;51.968;5.658;2023-05-07T14:09:36;28.6;41.6
79750;SHT31;69233;51.968;5.658;2023-05-07T14:12:07;28.5;41.1
79750;SHT31;69233;51.968;5.658;2023-05-07T14:14:36;28.4;41.8
79750;SHT31;69233;51.968;5.658;2023-05-07T14:17:06;28.3;42.7
79750;SHT31;69233;51.968;5.658;2023-05-07T14:19:37;28.2;42.0
79750;SHT31;69233;51.968;5.658;2023-05-07T14:22:07;28.1;42.3
79750;SHT31;69233;51.968;5.658;2023-05-07T14:24:37;28.0;42.2
79750;SHT31;69233;51.968;5.658;2023-05-07T14:27:07;28.0;43.6
79750;SHT31;69233;51.968;5.658;2023-05-07T14:29:36;27.9;43.3
79750;SHT31;69233;51.968;5.658;2023-05-07T14:32:06;27.8;43.3
79750;SHT31;69233;51.968;5.658;2023-05-07T14:34:35;27.7;43.4
79750;SHT31;69233;51.968;5.658;2023-05-07T14:37:05;27.6;43.3
79750;SHT31;69233;51.968;5.658;2023-05-07T14:39:34;27.5;43.3
79750;SHT31;69233;51.968;5.658;2023-05-07T14:42:04;27.4;43.8
79750;SHT31;69233;51.968;5.658;2023-05-07T14:44:35;27.3;44.3
79750;SHT31;69233;51.968;5.658;2023-05-07T14:47:05;27.3;44.1
79750;SHT31;69233;51.968;5.658;2023-05-07T14:49:35;27.2;44.3
79750;SHT31;69233;51.968;5.658;2023-05-07T14:52:05;27.2;44.7
79750;SHT31;69233;51.968;5.658;2023-05-07T14:54:40;27.1;44.6
79750;SHT31;69233;51.968;5.658;2023-05-07T14:57:10;27.1;44.7
79750;SHT31;69233;51.968;5.658;2023-05-07T14:59:43;27.1;45.0
79750;SHT31;69233;51.968;5.658;2023-05-07T15:02:14;27.1;44.4
79750;SHT31;69233;51.968;5.658;2023-05-07T15:04:44;27.1;43.9
79750;SHT31;69233;51.968;5.658;2023-05-07T15:07:15;27.1;44.0
79750;SHT31;69233;51.968;5.658;2023-05-07T15:09:45;27.0;44.1
79750;SHT31;69233;51.968;5.658;2023-05-07T15:12:17;27.0;44.2
79750;SHT31;69233;51.968;5.658;2023-05-07T15:14:46;26.9;43.9
79750;SHT31;69233;51.968;5.658;2023-05-07T15:17:16;26.7;43.3
79750;SHT31;69233;51.968;5.658;2023-05-07T15:19:46;26.5;43.4
79750;SHT31;69233;51.968;5.658;2023-05-07T15:22:15;26.3;43.3
79750;SHT31;69233;51.968;5.658;2023-05-07T15:24:47;26.0;42.7
79750;SHT31;69233;51.968;5.658;2023-05-07T15:27:17;25.7;42.9
79750;SHT31;69233;51.968;5.658;2023-05-07T15:29:47;25.4;43.5
79750;SHT31;69233;51.968;5.658;2023-05-07T15:32:16;25.1;43.7
79750;SHT31;69233;51.968;5.658;2023-05-07T15:34:46;24.8;43.8
79750;SHT31;69233;51.968;5.658;2023-05-07T15:37:15;24.4;44.7
79750;SHT31;69233;51.968;5.658;2023-05-07T15:39:45;24.1;46.2
79750;SHT31;69233;51.968;5.658;2023-05-07T15:42:14;23.8;48.3
79750;SHT31;69233;51.968;5.658;2023-05-07T15:44:44;23.5;51.1
79750;SHT31;69233;51.968;5.658;2023-05-07T15:47:14;23.1;56.0
79750;SHT31;69233;51.968;5.658;2023-05-07T15:49:43;22.5;57.0
79750;SHT31;69233;51.968;5.658;2023-05-07T15:52:13;21.9;59.9
79750;SHT31;69233;51.968;5.658;2023-05-07T15:54:43;21.4;62.8
79750;SHT31;69233;51.968;5.658;2023-05-07T15:57:13;21.0;64.5
79750;SHT31;69233;51.968;5.658;2023-05-07T15:59:43;20.8;63.7
79750;SHT31;69233;51.968;5.658;2023-05-07T16:02:13;20.5;66.1
79750;SHT31;69233;51.968;5.658;2023-05-07T16:04:43;20.4;67.9
79750;SHT31;69233;51.968;5.658;2023-05-07T16:07:12;20.3;69.3
79750;SHT31;69233;51.968;5.658;2023-05-07T16:09:42;20.2;68.2
79750;SHT31;69233;51.968;5.658;2023-05-07T16:12:11;20.1;68.7
79750;SHT31;69233;51.968;5.658;2023-05-07T16:14:41;20.1;70.1
79750;SHT31;69233;51.968;5.658;2023-05-07T16:17:10;20.0;70.7
79750;SHT31;69233;51.968;5.658;2023-05-07T16:19:40;20.0;71.1
79750;SHT31;69233;51.968;5.658;2023-05-07T16:22:09;20.0;70.5
79750;SHT31;69233;51.968;5.658;2023-05-07T16:24:39;20.0;70.2
79750;SHT31;69233;51.968;5.658;2023-05-07T16:27:08;19.9;68.7